sensor_id;sensor_type;location;lat;lon;timestamp;P1;durP1;ratioP1;P2;durP2;ratioP2
11893;SDS011;6006;49.696;8.662;2023-03-01T00:01:16;6.87;;;5.23;;
11893;SDS011;6006;49.696;8.662;2023-03-01T00:03:45;8.07;;;6.00;;
11893;SDS011;6006;49.696;8.662;2023-03-01T00:06:12;8.47;;;5.77;;
11893;SDS011;6006;49.696;8.662;2023-03-01T00:08:41;8.77;;;6.10;;
11893;SDS011;6006;49.696;8.662;2023-03-01T00:11:09;8.47;;;6.17;;
11893;SDS011;6006;49.696;8.662;2023-03-01T00:13:38;7.43;;;5.97;;
11893;SDS011;6006;49.696;8.662;2023-03-01T00:16:06;7.53;;;5.90;;
11893;SDS011;6006;49.696;8.662;2023-03-01T00:18:34;7.70;;;6.30;;
11893;SDS011;6006;49.696;8.662;2023-03-01T00:21:01;7.73;;;5.93;;
11893;SDS011;6006;49.696;8.662;2023-03-01T00:23:28;6.93;;;5.70;;
11893;SDS011;6006;49.696;8.662;2023-03-01T00:25:57;8.17;;;5.73;;
11893;SDS011;6006;49.696;8.662;2023-03-01T00:28:24;7.67;;;6.10;;
11893;SDS011;6006;49.696;8.662;2023-03-01T00:30:51;10.60;;;6.07;;
11893;SDS011;6006;49.696;8.662;2023-03-01T00:33:18;8.77;;;6.27;;
11893;SDS011;6006;49.696;8.662;2023-03-01T00:35:45;10.70;;;6.70;;
11893;SDS011;6006;49.696;8.662;2023-03-01T00:38:12;9.23;;;6.20;;
11893;SDS011;6006;49.696;8.662;2023-03-01T00:40:39;9.93;;;6.73;;
11893;SDS011;6006;49.696;8.662;2023-03-01T00:43:07;8.67;;;6.30;;
11893;SDS011;6006;49.696;8.662;2023-03-01T00:45:35;7.60;;;5.90;;
11893;SDS011;6006;49.696;8.662;2023-03-01T00:48:02;6.97;;;5.57;;
11893;SDS011;6006;49.696;8.662;2023-03-01T00:50:30;7.33;;;5.73;;
11893;SDS011;6006;49.696;8.662;2023-03-01T00:52:57;9.47;;;6.60;;
11893;SDS011;6006;49.696;8.662;2023-03-01T00:55:24;7.50;;;5.80;;
11893;SDS011;6006;49.696;8.662;2023-03-01T00:57:51;7.63;;;5.53;;
11893;SDS011;6006;49.696;8.662;2023-03-01T01:00:20;7.90;;;6.30;;
11893;SDS011;6006;49.696;8.662;2023-03-01T01:02:47;9.80;;;5.97;;
11893;SDS011;6006;49.696;8.662;2023-03-01T01:05:14;6.67;;;5.90;;
11893;SDS011;6006;49.696;8.662;2023-03-01T01:07:45;7.47;;;5.83;;
11893;SDS011;6006;49.696;8.662;2023-03-01T01:10:13;6.23;;;5.07;;
11893;SDS011;6006;49.696;8.662;2023-03-01T01:12:42;8.27;;;6.07;;
11893;SDS011;6006;49.696;8.662;2023-03-01T01:15:09;9.90;;;6.47;;
11893;SDS011;6006;49.696;8.662;2023-03-01T01:17:40;8.83;;;6.50;;
11893;SDS011;6006;49.696;8.662;2023-03-01T01:20:07;8.70;;;6.13;;
11893;SDS011;6006;49.696;8.662;2023-03-01T01:22:35;8.53;;;6.00;;
11893;SDS011;6006;49.696;8.662;2023-03-01T01:25:02;8.63;;;5.80;;
11893;SDS011;6006;49.696;8.662;2023-03-01T01:27:29;7.47;;;6.13;;
11893;SDS011;6006;49.696;8.662;2023-03-01T01:29:56;7.73;;;5.77;;
11893;SDS011;6006;49.696;8.662;2023-03-01T01:32:22;8.27;;;5.73;;
11893;SDS011;6006;49.696;8.662;2023-03-01T01:34:51;9.43;;;5.90;;
11893;SDS011;6006;49.696;8.662;2023-03-01T01:37:18;7.80;;;6.30;;
11893;SDS011;6006;49.696;8.662;2023-03-01T01:39:44;7.37;;;5.83;;
11893;SDS011;6006;49.696;8.662;2023-03-01T01:42:12;11.43;;;7.00;;
11893;SDS011;6006;49.696;8.662;2023-03-01T01:44:42;8.83;;;6.57;;
11893;SDS011;6006;49.696;8.662;2023-03-01T01:47:12;9.13;;;6.43;;
11893;SDS011;6006;49.696;8.662;2023-03-01T01:49:43;9.17;;;7.03;;
11893;SDS011;6006;49.696;8.662;2023-03-01T01:52:16;8.30;;;6.07;;
11893;SDS011;6006;49.696;8.662;2023-03-01T01:54:47;8.43;;;6.20;;
11893;SDS011;6006;49.696;8.662;2023-03-01T01:57:19;8.07;;;6.50;;
11893;SDS011;6006;49.696;8.662;2023-03-01T01:59:50;9.33;;;6.23;;
11893;SDS011;6006;49.696;8.662;2023-03-01T02:02:20;7.33;;;6.40;;
11893;SDS011;6006;49.696;8.662;2023-03-01T02:04:47;7.87;;;5.73;;
11893;SDS011;6006;49.696;8.662;2023-03-01T02:07:21;7.47;;;6.17;;
11893;SDS011;6006;49.696;8.662;2023-03-01T02:09:50;11.43;;;7.13;;
11893;SDS011;6006;49.696;8.662;2023-03-01T02:12:19;9.07;;;6.47;;
11893;SDS011;6006;49.696;8.662;2023-03-01T02:14:48;8.43;;;6.27;;
11893;SDS011;6006;49.696;8.662;2023-03-01T02:17:15;10.23;;;6.70;;
11893;SDS011;6006;49.696;8.662;2023-03-01T02:19:49;10.20;;;6.33;;
11893;SDS011;6006;49.696;8.662;2023-03-01T02:22:27;9.70;;;6.87;;
11893;SDS011;6006;49.696;8.662;2023-03-01T02:25:00;11.40;;;7.77;;
11893;SDS011;6006;49.696;8.662;2023-03-01T02:27:40;10.37;;;7.13;;
11893;SDS011;6006;49.696;8.662;2023-03-01T02:30:16;8.87;;;7.00;;
11893;SDS011;6006;49.696;8.662;2023-03-01T02:32:44;8.90;;;6.80;;
11893;SDS011;6006;49.696;8.662;2023-03-01T02:35:12;14.57;;;7.00;;
11893;SDS011;6006;49.696;8.662;2023-03-01T02:37:41;9.63;;;6.57;;
11893;SDS011;6006;49.696;8.662;2023-03-01T02:40:10;10.50;;;7.07;;
11893;SDS011;6006;49.696;8.662;2023-03-01T02:42:41;12.33;;;7.23;;
11893;SDS011;6006;49.696;8.662;2023-03-01T02:45:13;10.10;;;6.57;;
11893;SDS011;6006;49.696;8.662;2023-03-01T02:47:41;10.80;;;7.27;;
11893;SDS011;6006;49.696;8.662;2023-03-01T02:50:18;9.80;;;6.90;;
11893;SDS011;6006;49.696;8.662;2023-03-01T02:53:00;10.30;;;7.43;;
11893;SDS011;6006;49.696;8.662;2023-03-01T02:55:31;8.17;;;6.60;;
11893;SDS011;6006;49.696;8.662;2023-03-01T02:57:58;9.33;;;6.87;;
11893;SDS011;6006;49.696;8.662;2023-03-01T03:00:30;10.90;;;7.20;;
11893;SDS011;6006;49.696;8.662;2023-03-01T03:03:06;9.27;;;6.90;;
11893;SDS011;6006;49.696;8.662;2023-03-01T03:05:34;11.37;;;7.43;;
11893;SDS011;6006;49.696;8.662;2023-03-01T03:08:02;9.47;;;6.60;;
11893;SDS011;6006;49.696;8.662;2023-03-01T03:10:30;12.30;;;7.87;;
11893;SDS011;6006;49.696;8.662;2023-03-01T03:12:59;11.87;;;6.93;;
11893;SDS011;6006;49.696;8.662;2023-03-01T03:15:28;11.30;;;7.13;;
11893;SDS011;6006;49.696;8.662;2023-03-01T03:17:56;12.10;;;7.27;;
11893;SDS011;6006;49.696;8.662;2023-03-01T03:20:26;11.20;;;7.53;;
11893;SDS011;6006;49.696;8.662;2023-03-01T03:22:55;9.10;;;6.87;;
11893;SDS011;6006;49.696;8.662;2023-03-01T03:25:23;9.40;;;6.80;;
11893;SDS011;6006;49.696;8.662;2023-03-01T03:27:51;11.87;;;7.27;;
11893;SDS011;6006;49.696;8.662;2023-03-01T03:30:22;8.13;;;6.17;;
11893;SDS011;6006;49.696;8.662;2023-03-01T03:32:50;9.33;;;6.57;;
11893;SDS011;6006;49.696;8.662;2023-03-01T03:35:18;8.47;;;6.37;;
11893;SDS011;6006;49.696;8.662;2023-03-01T03:37:48;11.27;;;7.07;;
11893;SDS011;6006;49.696;8.662;2023-03-01T03:40:32;10.97;;;6.60;;
11893;SDS011;6006;49.696;8.662;2023-03-01T03:43:00;8.43;;;6.67;;
11893;SDS011;6006;49.696;8.662;2023-03-01T03:45:27;9.60;;;6.97;;
11893;SDS011;6006;49.696;8.662;2023-03-01T03:47:54;9.60;;;6.10;;
11893;SDS011;6006;49.696;8.662;2023-03-01T03:50:21;12.63;;;7.30;;
11893;SDS011;6006;49.696;8.662;2023-03-01T03:52:49;9.27;;;6.47;;
11893;SDS011;6006;49.696;8.662;2023-03-01T03:55:16;10.70;;;7.07;;
11893;SDS011;6006;49.696;8.662;2023-03-01T03:57:44;10.17;;;7.63;;
11893;SDS011;6006;49.696;8.662;2023-03-01T04:00:17;10.67;;;6.77;;
11893;SDS011;6006;49.696;8.662;2023-03-01T04:02:45;9.33;;;6.57;;
11893;SDS011;6006;49.696;8.662;2023-03-01T04:05:14;10.47;;;6.67;;
11893;SDS011;6006;49.696;8.662;2023-03-01T04:07:43;9.23;;;6.47;;
11893;SDS011;6006;49.696;8.662;2023-03-01T04:10:12;10.03;;;6.60;;
11893;SDS011;6006;49.696;8.662;2023-03-01T04:12:40;11.37;;;6.97;;
11893;SDS011;6006;49.696;8.662;2023-03-01T04:15:08;8.23;;;6.87;;
11893;SDS011;6006;49.696;8.662;2023-03-01T04:17:38;9.70;;;7.73;;
11893;SDS011;6006;49.696;8.662;2023-03-01T04:20:07;9.63;;;7.27;;
11893;SDS011;6006;49.696;8.662;2023-03-01T04:22:36;11.17;;;6.90;;
11893;SDS011;6006;49.696;8.662;2023-03-01T04:25:03;9.10;;;6.60;;
11893;SDS011;6006;49.696;8.662;2023-03-01T04:27:32;9.87;;;7.00;;
11893;SDS011;6006;49.696;8.662;2023-03-01T04:29:59;11.80;;;6.67;;
11893;SDS011;6006;49.696;8.662;2023-03-01T04:32:26;8.03;;;6.80;;
11893;SDS011;6006;49.696;8.662;2023-03-01T04:34:53;10.53;;;6.77;;
11893;SDS011;6006;49.696;8.662;2023-03-01T04:37:20;9.90;;;6.97;;
11893;SDS011;6006;49.696;8.662;2023-03-01T04:39:47;9.37;;;7.17;;
11893;SDS011;6006;49.696;8.662;2023-03-01T04:42:14;11.07;;;6.87;;
11893;SDS011;6006;49.696;8.662;2023-03-01T04:44:43;9.33;;;6.77;;
11893;SDS011;6006;49.696;8.662;2023-03-01T04:47:10;8.27;;;6.30;;
11893;SDS011;6006;49.696;8.662;2023-03-01T04:49:37;11.27;;;7.27;;
11893;SDS011;6006;49.696;8.662;2023-03-01T04:52:04;10.03;;;6.53;;
11893;SDS011;6006;49.696;8.662;2023-03-01T04:54:31;9.37;;;6.97;;
11893;SDS011;6006;49.696;8.662;2023-03-01T04:56:59;9.20;;;6.80;;
11893;SDS011;6006;49.696;8.662;2023-03-01T04:59:26;9.70;;;6.63;;
11893;SDS011;6006;49.696;8.662;2023-03-01T05:01:55;10.77;;;7.03;;
11893;SDS011;6006;49.696;8.662;2023-03-01T05:04:23;10.67;;;7.40;;
11893;SDS011;6006;49.696;8.662;2023-03-01T05:06:50;9.57;;;6.50;;
11893;SDS011;6006;49.696;8.662;2023-03-01T05:09:18;9.60;;;7.43;;
11893;SDS011;6006;49.696;8.662;2023-03-01T05:11:45;10.57;;;6.90;;
11893;SDS011;6006;49.696;8.662;2023-03-01T05:14:12;9.47;;;6.83;;
11893;SDS011;6006;49.696;8.662;2023-03-01T05:16:39;10.73;;;7.73;;
11893;SDS011;6006;49.696;8.662;2023-03-01T05:19:08;9.27;;;7.07;;
11893;SDS011;6006;49.696;8.662;2023-03-01T05:21:40;9.53;;;6.90;;
11893;SDS011;6006;49.696;8.662;2023-03-01T05:24:21;9.40;;;6.87;;
11893;SDS011;6006;49.696;8.662;2023-03-01T05:26:48;10.47;;;7.40;;
11893;SDS011;6006;49.696;8.662;2023-03-01T05:29:17;12.00;;;7.53;;
11893;SDS011;6006;49.696;8.662;2023-03-01T05:31:49;9.83;;;7.40;;
11893;SDS011;6006;49.696;8.662;2023-03-01T05:34:18;8.60;;;6.90;;
11893;SDS011;6006;49.696;8.662;2023-03-01T05:36:47;9.83;;;6.80;;
11893;SDS011;6006;49.696;8.662;2023-03-01T05:39:18;11.13;;;7.47;;
11893;SDS011;6006;49.696;8.662;2023-03-01T05:41:46;9.63;;;7.37;;
11893;SDS011;6006;49.696;8.662;2023-03-01T05:44:13;10.27;;;7.10;;
11893;SDS011;6006;49.696;8.662;2023-03-01T05:46:40;10.53;;;7.40;;
11893;SDS011;6006;49.696;8.662;2023-03-01T05:49:07;10.93;;;7.80;;
11893;SDS011;6006;49.696;8.662;2023-03-01T05:51:35;9.50;;;6.83;;
11893;SDS011;6006;49.696;8.662;2023-03-01T05:54:02;11.97;;;7.47;;
11893;SDS011;6006;49.696;8.662;2023-03-01T05:56:31;9.13;;;7.33;;
11893;SDS011;6006;49.696;8.662;2023-03-01T05:58:59;9.33;;;6.90;;
11893;SDS011;6006;49.696;8.662;2023-03-01T06:01:26;10.87;;;7.20;;
11893;SDS011;6006;49.696;8.662;2023-03-01T06:03:52;9.37;;;6.93;;
11893;SDS011;6006;49.696;8.662;2023-03-01T06:06:19;11.90;;;7.13;;
11893;SDS011;6006;49.696;8.662;2023-03-01T06:08:48;9.60;;;7.20;;
11893;SDS011;6006;49.696;8.662;2023-03-01T06:11:15;8.20;;;6.50;;
11893;SDS011;6006;49.696;8.662;2023-03-01T06:13:42;9.70;;;6.93;;
11893;SDS011;6006;49.696;8.662;2023-03-01T06:16:09;11.43;;;7.60;;
11893;SDS011;6006;49.696;8.662;2023-03-01T06:18:36;10.10;;;7.33;;
11893;SDS011;6006;49.696;8.662;2023-03-01T06:21:03;8.33;;;7.40;;
11893;SDS011;6006;49.696;8.662;2023-03-01T06:23:31;9.00;;;7.17;;
11893;SDS011;6006;49.696;8.662;2023-03-01T06:25:59;10.43;;;7.30;;
11893;SDS011;6006;49.696;8.662;2023-03-01T06:28:26;8.90;;;7.10;;
11893;SDS011;6006;49.696;8.662;2023-03-01T06:30:53;9.27;;;6.83;;
11893;SDS011;6006;49.696;8.662;2023-03-01T06:33:20;10.73;;;7.47;;
11893;SDS011;6006;49.696;8.662;2023-03-01T06:35:49;10.37;;;7.13;;
11893;SDS011;6006;49.696;8.662;2023-03-01T06:38:15;11.80;;;7.27;;
11893;SDS011;6006;49.696;8.662;2023-03-01T06:40:44;10.97;;;6.87;;
11893;SDS011;6006;49.696;8.662;2023-03-01T06:43:12;10.63;;;6.90;;
11893;SDS011;6006;49.696;8.662;2023-03-01T06:45:39;10.37;;;7.20;;
11893;SDS011;6006;49.696;8.662;2023-03-01T06:48:06;9.70;;;7.33;;
11893;SDS011;6006;49.696;8.662;2023-03-01T06:50:34;11.90;;;7.30;;
11893;SDS011;6006;49.696;8.662;2023-03-01T06:53:01;9.30;;;7.10;;
11893;SDS011;6006;49.696;8.662;2023-03-01T06:55:28;11.57;;;7.60;;
11893;SDS011;6006;49.696;8.662;2023-03-01T06:57:55;11.47;;;8.40;;
11893;SDS011;6006;49.696;8.662;2023-03-01T07:00:25;11.43;;;8.00;;
11893;SDS011;6006;49.696;8.662;2023-03-01T07:02:53;11.40;;;7.00;;
11893;SDS011;6006;49.696;8.662;2023-03-01T07:05:20;10.63;;;8.10;;
11893;SDS011;6006;49.696;8.662;2023-03-01T07:07:47;10.37;;;7.37;;
11893;SDS011;6006;49.696;8.662;2023-03-01T07:10:14;9.80;;;7.87;;
11893;SDS011;6006;49.696;8.662;2023-03-01T07:12:41;10.97;;;6.90;;
11893;SDS011;6006;49.696;8.662;2023-03-01T07:15:08;10.80;;;8.27;;
11893;SDS011;6006;49.696;8.662;2023-03-01T07:17:37;9.60;;;7.00;;
11893;SDS011;6006;49.696;8.662;2023-03-01T07:20:04;13.40;;;7.90;;
11893;SDS011;6006;49.696;8.662;2023-03-01T07:22:32;9.60;;;6.87;;
11893;SDS011;6006;49.696;8.662;2023-03-01T07:24:59;11.50;;;7.70;;
11893;SDS011;6006;49.696;8.662;2023-03-01T07:27:25;10.07;;;7.10;;
11893;SDS011;6006;49.696;8.662;2023-03-01T07:29:52;12.30;;;7.93;;
11893;SDS011;6006;49.696;8.662;2023-03-01T07:32:19;12.20;;;8.27;;
11893;SDS011;6006;49.696;8.662;2023-03-01T07:34:47;13.43;;;7.90;;
11893;SDS011;6006;49.696;8.662;2023-03-01T07:37:14;11.43;;;8.17;;
11893;SDS011;6006;49.696;8.662;2023-03-01T07:39:41;12.43;;;8.30;;
11893;SDS011;6006;49.696;8.662;2023-03-01T07:42:08;10.70;;;8.37;;
11893;SDS011;6006;49.696;8.662;2023-03-01T07:44:35;11.53;;;7.83;;
11893;SDS011;6006;49.696;8.662;2023-03-01T07:47:02;11.33;;;7.90;;
11893;SDS011;6006;49.696;8.662;2023-03-01T07:49:29;12.03;;;8.33;;
11893;SDS011;6006;49.696;8.662;2023-03-01T07:51:57;10.47;;;7.70;;
11893;SDS011;6006;49.696;8.662;2023-03-01T07:54:24;8.17;;;6.93;;
11893;SDS011;6006;49.696;8.662;2023-03-01T07:56:51;9.73;;;8.30;;
11893;SDS011;6006;49.696;8.662;2023-03-01T07:59:19;11.03;;;8.00;;
11893;SDS011;6006;49.696;8.662;2023-03-01T08:01:48;10.60;;;8.10;;
11893;SDS011;6006;49.696;8.662;2023-03-01T08:04:15;10.83;;;8.30;;
11893;SDS011;6006;49.696;8.662;2023-03-01T08:06:42;11.40;;;7.97;;
11893;SDS011;6006;49.696;8.662;2023-03-01T08:09:10;16.20;;;10.17;;
11893;SDS011;6006;49.696;8.662;2023-03-01T08:11:37;12.07;;;7.60;;
11893;SDS011;6006;49.696;8.662;2023-03-01T08:14:05;10.10;;;7.73;;
11893;SDS011;6006;49.696;8.662;2023-03-01T08:16:32;11.77;;;8.00;;
11893;SDS011;6006;49.696;8.662;2023-03-01T08:19:03;10.37;;;7.60;;
11893;SDS011;6006;49.696;8.662;2023-03-01T08:21:30;12.43;;;9.40;;
11893;SDS011;6006;49.696;8.662;2023-03-01T08:23:59;13.43;;;7.77;;
11893;SDS011;6006;49.696;8.662;2023-03-01T08:26:28;12.53;;;8.77;;
11893;SDS011;6006;49.696;8.662;2023-03-01T08:28:55;10.50;;;8.40;;
11893;SDS011;6006;49.696;8.662;2023-03-01T08:31:23;11.53;;;8.07;;
11893;SDS011;6006;49.696;8.662;2023-03-01T08:33:52;10.70;;;8.00;;
11893;SDS011;6006;49.696;8.662;2023-03-01T08:36:21;11.67;;;8.17;;
11893;SDS011;6006;49.696;8.662;2023-03-01T08:38:48;12.20;;;8.43;;
11893;SDS011;6006;49.696;8.662;2023-03-01T08:41:15;11.13;;;8.13;;
11893;SDS011;6006;49.696;8.662;2023-03-01T08:43:44;10.77;;;8.37;;
11893;SDS011;6006;49.696;8.662;2023-03-01T08:46:11;11.30;;;8.03;;
11893;SDS011;6006;49.696;8.662;2023-03-01T08:48:38;13.33;;;8.87;;
11893;SDS011;6006;49.696;8.662;2023-03-01T08:51:08;10.40;;;8.17;;
11893;SDS011;6006;49.696;8.662;2023-03-01T08:53:35;13.17;;;8.20;;
11893;SDS011;6006;49.696;8.662;2023-03-01T08:56:02;12.07;;;8.47;;
11893;SDS011;6006;49.696;8.662;2023-03-01T08:58:30;10.67;;;8.30;;
11893;SDS011;6006;49.696;8.662;2023-03-01T09:00:58;10.57;;;7.93;;
11893;SDS011;6006;49.696;8.662;2023-03-01T09:03:25;10.30;;;8.23;;
11893;SDS011;6006;49.696;8.662;2023-03-01T09:05:53;10.53;;;8.30;;
11893;SDS011;6006;49.696;8.662;2023-03-01T09:08:25;13.60;;;8.63;;
11893;SDS011;6006;49.696;8.662;2023-03-01T09:10:52;10.90;;;8.03;;
11893;SDS011;6006;49.696;8.662;2023-03-01T09:13:19;12.67;;;9.23;;
11893;SDS011;6006;49.696;8.662;2023-03-01T09:15:48;13.20;;;8.97;;
11893;SDS011;6006;49.696;8.662;2023-03-01T09:18:16;12.17;;;8.83;;
11893;SDS011;6006;49.696;8.662;2023-03-01T09:20:43;10.77;;;8.67;;
11893;SDS011;6006;49.696;8.662;2023-03-01T09:23:10;13.10;;;9.63;;
11893;SDS011;6006;49.696;8.662;2023-03-01T09:25:37;10.53;;;8.90;;
11893;SDS011;6006;49.696;8.662;2023-03-01T09:28:04;13.83;;;9.53;;
11893;SDS011;6006;49.696;8.662;2023-03-01T09:30:31;13.13;;;9.40;;
11893;SDS011;6006;49.696;8.662;2023-03-01T09:32:58;12.30;;;9.30;;
11893;SDS011;6006;49.696;8.662;2023-03-01T09:35:26;13.37;;;9.07;;
11893;SDS011;6006;49.696;8.662;2023-03-01T09:37:53;12.23;;;8.77;;
11893;SDS011;6006;49.696;8.662;2023-03-01T09:40:20;11.87;;;9.03;;
11893;SDS011;6006;49.696;8.662;2023-03-01T09:42:52;13.80;;;9.73;;
11893;SDS011;6006;49.696;8.662;2023-03-01T09:45:25;14.73;;;9.63;;
11893;SDS011;6006;49.696;8.662;2023-03-01T09:47:55;13.07;;;9.10;;
11893;SDS011;6006;49.696;8.662;2023-03-01T09:50:23;13.20;;;9.23;;
11893;SDS011;6006;49.696;8.662;2023-03-01T09:53:00;11.07;;;8.67;;
11893;SDS011;6006;49.696;8.662;2023-03-01T09:55:30;12.73;;;9.23;;
11893;SDS011;6006;49.696;8.662;2023-03-01T09:58:00;13.17;;;9.40;;
11893;SDS011;6006;49.696;8.662;2023-03-01T10:00:39;13.43;;;9.73;;
11893;SDS011;6006;49.696;8.662;2023-03-01T10:03:12;13.60;;;9.20;;
11893;SDS011;6006;49.696;8.662;2023-03-01T10:05:46;12.70;;;9.70;;
11893;SDS011;6006;49.696;8.662;2023-03-01T10:08:26;12.30;;;9.57;;
11893;SDS011;6006;49.696;8.662;2023-03-01T10:11:01;13.03;;;8.83;;
11893;SDS011;6006;49.696;8.662;2023-03-01T10:13:31;12.03;;;9.03;;
11893;SDS011;6006;49.696;8.662;2023-03-01T10:16:05;14.30;;;9.27;;
11893;SDS011;6006;49.696;8.662;2023-03-01T10:18:39;11.13;;;9.13;;
11893;SDS011;6006;49.696;8.662;2023-03-01T10:21:12;14.13;;;9.90;;
11893;SDS011;6006;49.696;8.662;2023-03-01T10:23:41;11.73;;;9.60;;
11893;SDS011;6006;49.696;8.662;2023-03-01T10:26:15;14.20;;;9.50;;
11893;SDS011;6006;49.696;8.662;2023-03-01T10:28:54;12.83;;;9.40;;
11893;SDS011;6006;49.696;8.662;2023-03-01T10:31:32;13.07;;;9.33;;
11893;SDS011;6006;49.696;8.662;2023-03-01T10:34:08;11.80;;;9.37;;
11893;SDS011;6006;49.696;8.662;2023-03-01T10:36:38;10.73;;;8.97;;
11893;SDS011;6006;49.696;8.662;2023-03-01T10:39:11;11.63;;;9.07;;
11893;SDS011;6006;49.696;8.662;2023-03-01T10:41:59;12.60;;;9.93;;
11893;SDS011;6006;49.696;8.662;2023-03-01T10:44:39;10.53;;;9.17;;
11893;SDS011;6006;49.696;8.662;2023-03-01T10:47:16;13.43;;;9.70;;
11893;SDS011;6006;49.696;8.662;2023-03-01T10:49:53;13.30;;;9.67;;
11893;SDS011;6006;49.696;8.662;2023-03-01T10:52:24;12.00;;;9.73;;
11893;SDS011;6006;49.696;8.662;2023-03-01T10:54:55;11.97;;;9.67;;
11893;SDS011;6006;49.696;8.662;2023-03-01T10:57:28;12.33;;;10.23;;
11893;SDS011;6006;49.696;8.662;2023-03-01T11:00:01;13.40;;;10.20;;
11893;SDS011;6006;49.696;8.662;2023-03-01T11:02:42;13.03;;;9.73;;
11893;SDS011;6006;49.696;8.662;2023-03-01T11:05:16;11.70;;;9.33;;
11893;SDS011;6006;49.696;8.662;2023-03-01T11:07:51;13.77;;;9.57;;
11893;SDS011;6006;49.696;8.662;2023-03-01T11:10:22;14.00;;;10.50;;
11893;SDS011;6006;49.696;8.662;2023-03-01T11:12:50;11.93;;;9.87;;
11893;SDS011;6006;49.696;8.662;2023-03-01T11:15:22;12.73;;;9.70;;
11893;SDS011;6006;49.696;8.662;2023-03-01T11:17:52;13.53;;;9.30;;
11893;SDS011;6006;49.696;8.662;2023-03-01T11:20:24;12.07;;;9.73;;
11893;SDS011;6006;49.696;8.662;2023-03-01T11:22:56;12.90;;;10.53;;
11893;SDS011;6006;49.696;8.662;2023-03-01T11:25:26;11.63;;;9.87;;
11893;SDS011;6006;49.696;8.662;2023-03-01T11:27:56;14.20;;;10.33;;
11893;SDS011;6006;49.696;8.662;2023-03-01T11:30:28;13.63;;;9.87;;
11893;SDS011;6006;49.696;8.662;2023-03-01T11:33:05;11.97;;;9.53;;
11893;SDS011;6006;49.696;8.662;2023-03-01T11:35:42;11.97;;;9.67;;
11893;SDS011;6006;49.696;8.662;2023-03-01T11:38:16;12.03;;;9.57;;
11893;SDS011;6006;49.696;8.662;2023-03-01T11:40:49;12.03;;;8.83;;
11893;SDS011;6006;49.696;8.662;2023-03-01T11:43:26;11.57;;;9.17;;
11893;SDS011;6006;49.696;8.662;2023-03-01T11:46:03;13.40;;;8.73;;
11893;SDS011;6006;49.696;8.662;2023-03-01T11:48:55;11.57;;;9.57;;
11893;SDS011;6006;49.696;8.662;2023-03-01T11:51:34;10.70;;;9.60;;
11893;SDS011;6006;49.696;8.662;2023-03-01T11:54:18;11.37;;;9.53;;
11893;SDS011;6006;49.696;8.662;2023-03-01T11:57:00;15.07;;;9.97;;
11893;SDS011;6006;49.696;8.662;2023-03-01T12:02:36;11.20;;;8.73;;
11893;SDS011;6006;49.696;8.662;2023-03-01T12:05:50;12.43;;;8.93;;
11893;SDS011;6006;49.696;8.662;2023-03-01T12:08:30;11.87;;;9.43;;
11893;SDS011;6006;49.696;8.662;2023-03-01T12:11:06;11.83;;;8.97;;
11893;SDS011;6006;49.696;8.662;2023-03-01T12:16:59;11.03;;;9.43;;
11893;SDS011;6006;49.696;8.662;2023-03-01T12:19:48;12.57;;;9.13;;
11893;SDS011;6006;49.696;8.662;2023-03-01T12:22:29;13.27;;;8.93;;
11893;SDS011;6006;49.696;8.662;2023-03-01T12:27:48;12.20;;;9.27;;
11893;SDS011;6006;49.696;8.662;2023-03-01T12:30:28;12.47;;;8.17;;
11893;SDS011;6006;49.696;8.662;2023-03-01T12:33:09;9.77;;;8.77;;
11893;SDS011;6006;49.696;8.662;2023-03-01T12:35:52;9.47;;;8.47;;
11893;SDS011;6006;49.696;8.662;2023-03-01T12:38:32;11.33;;;9.20;;
11893;SDS011;6006;49.696;8.662;2023-03-01T12:41:10;11.27;;;8.97;;
11893;SDS011;6006;49.696;8.662;2023-03-01T12:44:01;10.63;;;9.33;;
11893;SDS011;6006;49.696;8.662;2023-03-01T12:46:49;11.80;;;9.13;;
11893;SDS011;6006;49.696;8.662;2023-03-01T12:49:30;12.80;;;9.43;;
11893;SDS011;6006;49.696;8.662;2023-03-01T12:52:02;11.67;;;9.43;;
11893;SDS011;6006;49.696;8.662;2023-03-01T12:54:37;9.50;;;8.50;;
11893;SDS011;6006;49.696;8.662;2023-03-01T12:57:06;11.10;;;8.97;;
11893;SDS011;6006;49.696;8.662;2023-03-01T12:59:41;11.50;;;9.30;;
11893;SDS011;6006;49.696;8.662;2023-03-01T13:02:14;10.37;;;8.50;;
11893;SDS011;6006;49.696;8.662;2023-03-01T13:04:51;12.33;;;9.43;;
11893;SDS011;6006;49.696;8.662;2023-03-01T13:07:29;12.47;;;9.57;;
11893;SDS011;6006;49.696;8.662;2023-03-01T13:10:14;11.97;;;8.43;;
11893;SDS011;6006;49.696;8.662;2023-03-01T13:12:52;11.00;;;9.63;;
11893;SDS011;6006;49.696;8.662;2023-03-01T13:15:30;11.03;;;8.57;;
11893;SDS011;6006;49.696;8.662;2023-03-01T13:17:59;10.80;;;8.80;;
11893;SDS011;6006;49.696;8.662;2023-03-01T13:20:32;9.90;;;7.97;;
11893;SDS011;6006;49.696;8.662;2023-03-01T13:23:12;12.03;;;8.57;;
11893;SDS011;6006;49.696;8.662;2023-03-01T13:26:04;11.03;;;8.67;;
11893;SDS011;6006;49.696;8.662;2023-03-01T13:28:37;9.63;;;8.20;;
11893;SDS011;6006;49.696;8.662;2023-03-01T13:31:09;10.67;;;8.13;;
11893;SDS011;6006;49.696;8.662;2023-03-01T13:33:40;9.93;;;7.87;;
11893;SDS011;6006;49.696;8.662;2023-03-01T13:36:11;10.63;;;8.27;;
11893;SDS011;6006;49.696;8.662;2023-03-01T13:39:27;10.50;;;8.13;;
11893;SDS011;6006;49.696;8.662;2023-03-01T13:41:58;9.50;;;7.37;;
11893;SDS011;6006;49.696;8.662;2023-03-01T13:44:26;8.97;;;7.40;;
11893;SDS011;6006;49.696;8.662;2023-03-01T13:47:00;10.63;;;7.63;;
11893;SDS011;6006;49.696;8.662;2023-03-01T13:49:41;9.90;;;7.07;;
11893;SDS011;6006;49.696;8.662;2023-03-01T13:52:21;7.53;;;6.70;;
11893;SDS011;6006;49.696;8.662;2023-03-01T13:55:01;8.63;;;7.00;;
11893;SDS011;6006;49.696;8.662;2023-03-01T13:57:32;9.97;;;7.00;;
11893;SDS011;6006;49.696;8.662;2023-03-01T14:00:02;8.83;;;6.53;;
11893;SDS011;6006;49.696;8.662;2023-03-01T14:02:31;7.97;;;7.07;;
11893;SDS011;6006;49.696;8.662;2023-03-01T14:04:59;8.37;;;6.40;;
11893;SDS011;6006;49.696;8.662;2023-03-01T14:07:27;9.47;;;6.83;;
11893;SDS011;6006;49.696;8.662;2023-03-01T14:09:56;7.90;;;6.43;;
11893;SDS011;6006;49.696;8.662;2023-03-01T14:12:26;7.63;;;6.17;;
11893;SDS011;6006;49.696;8.662;2023-03-01T14:15:06;7.60;;;6.23;;
11893;SDS011;6006;49.696;8.662;2023-03-01T14:17:47;7.17;;;5.80;;
11893;SDS011;6006;49.696;8.662;2023-03-01T14:20:20;7.50;;;5.73;;
11893;SDS011;6006;49.696;8.662;2023-03-01T14:22:49;7.03;;;6.33;;
11893;SDS011;6006;49.696;8.662;2023-03-01T14:25:28;8.27;;;6.27;;
11893;SDS011;6006;49.696;8.662;2023-03-01T14:27:58;7.90;;;6.60;;
11893;SDS011;6006;49.696;8.662;2023-03-01T14:30:30;6.80;;;6.10;;
11893;SDS011;6006;49.696;8.662;2023-03-01T14:33:02;7.17;;;5.57;;
11893;SDS011;6006;49.696;8.662;2023-03-01T14:35:32;6.17;;;5.57;;
11893;SDS011;6006;49.696;8.662;2023-03-01T14:38:01;6.73;;;5.43;;
11893;SDS011;6006;49.696;8.662;2023-03-01T14:40:28;7.60;;;5.80;;
11893;SDS011;6006;49.696;8.662;2023-03-01T14:42:58;6.77;;;5.47;;
11893;SDS011;6006;49.696;8.662;2023-03-01T14:45:27;6.00;;;5.50;;
11893;SDS011;6006;49.696;8.662;2023-03-01T14:47:58;7.43;;;5.67;;
11893;SDS011;6006;49.696;8.662;2023-03-01T14:50:29;7.13;;;5.17;;
11893;SDS011;6006;49.696;8.662;2023-03-01T14:52:58;7.33;;;5.87;;
11893;SDS011;6006;49.696;8.662;2023-03-01T14:55:29;6.80;;;5.53;;
11893;SDS011;6006;49.696;8.662;2023-03-01T14:57:57;7.37;;;5.57;;
11893;SDS011;6006;49.696;8.662;2023-03-01T15:00:25;5.83;;;5.00;;
11893;SDS011;6006;49.696;8.662;2023-03-01T15:02:55;7.40;;;5.80;;
11893;SDS011;6006;49.696;8.662;2023-03-01T15:05:30;6.53;;;5.40;;
11893;SDS011;6006;49.696;8.662;2023-03-01T15:07:59;5.90;;;5.00;;
11893;SDS011;6006;49.696;8.662;2023-03-01T15:10:29;5.77;;;5.17;;
11893;SDS011;6006;49.696;8.662;2023-03-01T15:13:09;6.20;;;5.23;;
11893;SDS011;6006;49.696;8.662;2023-03-01T15:15:38;6.47;;;5.10;;
11893;SDS011;6006;49.696;8.662;2023-03-01T15:18:17;6.77;;;5.50;;
11893;SDS011;6006;49.696;8.662;2023-03-01T15:20:46;12.23;;;6.10;;
11893;SDS011;6006;49.696;8.662;2023-03-01T15:23:18;6.93;;;5.33;;